createdAt,value
2023-03-22T00:01:58.701Z,11.00
2023-03-22T00:04:26.271Z,11.30
2023-03-22T00:06:52.886Z,11.30
2023-03-22T00:09:22.461Z,11.40
2023-03-22T00:11:50.877Z,11.30
2023-03-22T00:14:18.622Z,11.30
2023-03-22T00:16:46.286Z,11.10
2023-03-22T00:19:12.942Z,11.00
2023-03-22T00:21:39.496Z,11.10
2023-03-22T00:24:06.500Z,11.10
2023-03-22T00:26:33.093Z,11.10
2023-03-22T00:29:00.663Z,11.20
2023-03-22T00:31:27.296Z,11.20
2023-03-22T00:33:53.899Z,11.00
2023-03-22T00:36:20.460Z,10.90
2023-03-22T00:38:51.738Z,10.90
2023-03-22T00:41:20.859Z,11.00
2023-03-22T00:43:48.913Z,10.80
2023-03-22T00:46:17.190Z,10.80
2023-03-22T00:48:44.197Z,10.70
2023-03-22T00:51:11.556Z,10.70
2023-03-22T00:53:41.214Z,10.90
2023-03-22T00:56:10.715Z,11.10
2023-03-22T00:58:44.748Z,10.90
2023-03-22T01:01:15.273Z,10.70
2023-03-22T01:03:43.421Z,10.70
2023-03-22T01:06:13.460Z,10.60
2023-03-22T01:08:40.178Z,10.60
2023-03-22T01:11:08.418Z,10.50
2023-03-22T01:13:39.492Z,10.60
2023-03-22T01:16:07.377Z,10.50
2023-03-22T01:18:34.397Z,10.40
2023-03-22T01:21:01.203Z,10.40
2023-03-22T01:23:28.311Z,10.30
2023-03-22T01:25:54.980Z,10.30
2023-03-22T01:28:21.764Z,10.40
2023-03-22T01:30:48.417Z,10.40
2023-03-22T01:33:15.217Z,10.40
2023-03-22T01:35:42.001Z,10.30
2023-03-22T01:38:09.465Z,10.30
2023-03-22T01:40:42.637Z,10.30
2023-03-22T01:43:14.831Z,10.30
2023-03-22T01:45:47.023Z,10.30
2023-03-22T01:48:41.965Z,10.40
2023-03-22T01:51:24.863Z,10.30
2023-03-22T01:54:22.882Z,10.30
2023-03-22T01:56:50.242Z,10.40
2023-03-22T01:59:27.727Z,10.30
2023-03-22T02:02:08.331Z,10.30
2023-03-22T02:04:39.073Z,10.20
2023-03-22T02:07:09.619Z,10.10
2023-03-22T02:09:42.271Z,10.10
2023-03-22T02:12:18.520Z,10.20
2023-03-22T02:15:07.179Z,10.10
2023-03-22T02:18:16.344Z,10.00
2023-03-22T02:21:03.215Z,10.10
2023-03-22T02:23:49.388Z,9.90
2023-03-22T02:26:46.831Z,9.90
2023-03-22T02:29:13.431Z,9.90
2023-03-22T02:32:14.452Z,9.90
2023-03-22T02:34:59.466Z,9.90
2023-03-22T02:37:38.317Z,10.00
2023-03-22T02:40:25.104Z,9.90
2023-03-22T02:43:11.589Z,9.80
2023-03-22T02:45:45.767Z,9.90
2023-03-22T02:48:27.036Z,9.90
2023-03-22T02:50:55.887Z,9.80
2023-03-22T02:53:40.682Z,9.70
2023-03-22T02:56:23.372Z,9.80
2023-03-22T02:58:53.185Z,9.90
2023-03-22T03:01:32.173Z,9.80
2023-03-22T03:04:02.296Z,9.80
2023-03-22T03:06:35.660Z,9.70
2023-03-22T03:09:05.105Z,9.60
2023-03-22T03:11:32.474Z,9.60
2023-03-22T03:13:59.731Z,9.80
2023-03-22T03:16:29.915Z,9.70
2023-03-22T03:19:08.188Z,9.70
2023-03-22T03:21:54.109Z,9.70
2023-03-22T03:24:33.987Z,9.60
2023-03-22T03:27:34.169Z,9.60
2023-03-22T03:30:19.779Z,9.60
2023-03-22T03:32:57.623Z,9.70
2023-03-22T03:35:37.856Z,9.70
2023-03-22T03:38:20.349Z,9.60
2023-03-22T03:40:54.746Z,9.60
2023-03-22T03:43:23.176Z,9.40
2023-03-22T03:45:52.091Z,9.30
2023-03-22T03:48:22.912Z,9.20
2023-03-22T03:50:53.095Z,9.20
2023-03-22T03:53:20.626Z,9.20
2023-03-22T03:55:47.736Z,9.20
2023-03-22T03:58:21.195Z,9.10
2023-03-22T04:00:48.880Z,9.10
2023-03-22T04:03:38.320Z,9.30
2023-03-22T04:06:23.531Z,9.40
2023-03-22T04:08:56.614Z,9.30
2023-03-22T04:11:27.852Z,9.30
2023-03-22T04:13:58.997Z,9.20
2023-03-22T04:16:29.624Z,9.30
2023-03-22T04:18:56.694Z,9.30
2023-03-22T04:21:23.697Z,9.20
2023-03-22T04:23:58.799Z,9.10
2023-03-22T04:26:28.059Z,9.00
2023-03-22T04:29:09.974Z,8.90
2023-03-22T04:31:41.516Z,9.00
2023-03-22T04:34:18.534Z,8.90
2023-03-22T04:36:55.401Z,8.90
2023-03-22T04:39:31.252Z,9.00
2023-03-22T04:42:24.750Z,9.00
2023-03-22T04:45:03.906Z,9.00
2023-03-22T04:47:31.381Z,9.10
2023-03-22T04:49:58.502Z,9.20
2023-03-22T04:52:26.606Z,9.20
2023-03-22T04:54:55.935Z,9.10
2023-03-22T04:57:22.700Z,9.30
2023-03-22T04:59:49.367Z,9.40
2023-03-22T05:02:16.802Z,9.50
2023-03-22T05:04:43.810Z,9.60
2023-03-22T05:07:19.354Z,9.40
2023-03-22T05:09:52.215Z,9.40
2023-03-22T05:12:18.876Z,9.40
2023-03-22T05:15:06.621Z,9.30
2023-03-22T05:17:36.687Z,9.30
2023-03-22T05:20:09.167Z,9.40
2023-03-22T05:22:40.965Z,9.30
2023-03-22T05:25:10.478Z,9.50
2023-03-22T05:27:39.007Z,9.80
2023-03-22T05:30:44.193Z,10.00
2023-03-22T05:33:32.028Z,9.90
2023-03-22T05:35:58.816Z,9.80
2023-03-22T05:38:28.974Z,9.60
2023-03-22T05:40:58.980Z,9.60
2023-03-22T05:43:26.020Z,9.50
2023-03-22T05:45:52.965Z,9.70
2023-03-22T05:48:44.003Z,9.50
2023-03-22T05:51:17.424Z,9.40
2023-03-22T05:53:46.613Z,9.40
2023-03-22T05:56:17.551Z,9.40
2023-03-22T05:58:46.342Z,9.30
2023-03-22T06:01:16.579Z,9.30
2023-03-22T06:03:43.235Z,9.40
2023-03-22T06:06:18.221Z,9.40
2023-03-22T06:09:16.337Z,9.40
2023-03-22T06:11:44.462Z,9.60
2023-03-22T06:14:11.692Z,9.50
2023-03-22T06:16:51.970Z,9.60
2023-03-22T06:19:18.564Z,9.40
2023-03-22T06:21:45.238Z,9.70
2023-03-22T06:24:16.127Z,9.80
2023-03-22T06:26:42.724Z,9.70
2023-03-22T06:29:09.263Z,9.70
2023-03-22T06:31:35.833Z,9.50
2023-03-22T06:34:06.320Z,9.60
2023-03-22T06:36:37.849Z,9.50
2023-03-22T06:39:08.624Z,9.60
2023-03-22T06:41:35.523Z,9.70
2023-03-22T06:44:02.782Z,9.70
2023-03-22T06:46:41.518Z,9.60
2023-03-22T06:49:28.754Z,9.60
2023-03-22T06:51:57.345Z,9.60
2023-03-22T06:54:23.904Z,9.60
2023-03-22T06:56:50.660Z,9.80
2023-03-22T06:59:17.438Z,9.80
2023-03-22T07:01:44.304Z,9.90
2023-03-22T07:04:11.769Z,9.90
2023-03-22T07:06:39.070Z,9.80
2023-03-22T07:09:05.792Z,9.90
2023-03-22T07:11:35.600Z,9.90
2023-03-22T07:14:03.180Z,9.80
2023-03-22T07:16:48.552Z,9.80
2023-03-22T07:19:18.336Z,9.80
2023-03-22T07:21:44.906Z,9.90
2023-03-22T07:24:13.587Z,10.00
2023-03-22T07:26:41.481Z,9.90
2023-03-22T07:29:11.193Z,9.90
2023-03-22T07:31:39.465Z,10.10
2023-03-22T07:34:10.330Z,9.90
2023-03-22T07:36:45.916Z,9.90
2023-03-22T07:39:13.255Z,9.90
2023-03-22T07:41:44.197Z,9.90
2023-03-22T07:44:30.881Z,9.90
2023-03-22T07:47:20.305Z,10.00
2023-03-22T07:50:06.556Z,10.10
2023-03-22T07:52:33.552Z,10.10
2023-03-22T07:55:00.422Z,10.20
2023-03-22T07:57:27.017Z,10.40
2023-03-22T07:59:57.815Z,10.60
2023-03-22T08:02:29.996Z,10.60
2023-03-22T08:04:58.946Z,10.60
2023-03-22T08:07:37.759Z,10.70
2023-03-22T08:10:04.865Z,10.50
2023-03-22T08:12:32.605Z,10.60
2023-03-22T08:15:08.792Z,10.70
2023-03-22T08:17:36.001Z,10.80
2023-03-22T08:20:08.644Z,11.00
2023-03-22T08:22:45.774Z,11.00
2023-03-22T08:25:27.298Z,11.30
2023-03-22T08:27:59.533Z,11.40
2023-03-22T08:30:27.030Z,11.20
2023-03-22T08:32:54.101Z,11.30
2023-03-22T08:35:20.884Z,11.30
2023-03-22T08:37:53.188Z,11.40
2023-03-22T08:40:20.974Z,11.70
2023-03-22T08:42:54.470Z,11.60
2023-03-22T08:45:21.303Z,11.60
2023-03-22T08:47:54.361Z,11.60
2023-03-22T08:50:23.538Z,11.70
2023-03-22T08:52:58.049Z,11.70
2023-03-22T08:55:31.437Z,11.70
2023-03-22T08:58:13.932Z,12.00
2023-03-22T09:00:49.493Z,12.20
2023-03-22T09:03:24.791Z,12.30
2023-03-22T09:05:51.594Z,12.20
2023-03-22T09:08:19.497Z,12.30
2023-03-22T09:10:51.957Z,12.30
2023-03-22T09:13:20.598Z,12.40
2023-03-22T09:15:59.492Z,12.50
2023-03-22T09:18:29.746Z,12.50
2023-03-22T09:20:59.978Z,12.80
2023-03-22T09:23:34.025Z,13.00
2023-03-22T09:26:01.658Z,12.90
2023-03-22T09:28:29.405Z,12.80
2023-03-22T09:31:06.767Z,13.00
2023-03-22T09:33:35.373Z,13.10
2023-03-22T09:36:02.145Z,13.20
2023-03-22T09:38:33.508Z,13.50
2023-03-22T09:41:06.586Z,13.80
2023-03-22T09:43:36.342Z,14.00
2023-03-22T09:46:05.872Z,13.70
2023-03-22T09:48:35.903Z,14.10
2023-03-22T09:51:03.753Z,14.50
2023-03-22T09:53:32.244Z,14.30
2023-03-22T09:56:19.618Z,14.40
2023-03-22T09:58:55.402Z,15.00
2023-03-22T10:01:26.852Z,15.00
2023-03-22T10:04:26.561Z,15.00
2023-03-22T10:07:23.863Z,15.20
2023-03-22T10:10:18.469Z,14.90
2023-03-22T10:13:09.543Z,14.70
2023-03-22T10:15:45.838Z,14.40
2023-03-22T10:18:19.496Z,14.50
2023-03-22T10:21:01.809Z,14.90
2023-03-22T10:23:47.186Z,14.80
2023-03-22T10:26:29.553Z,14.90
2023-03-22T10:29:04.031Z,14.90
2023-03-22T10:31:32.362Z,14.90
2023-03-22T10:34:06.559Z,14.60
2023-03-22T10:36:35.935Z,14.80
2023-03-22T10:39:14.462Z,14.90
2023-03-22T10:41:41.368Z,15.00
2023-03-22T10:44:08.098Z,15.00
2023-03-22T10:46:38.511Z,15.10
2023-03-22T10:49:05.824Z,14.80
2023-03-22T10:51:36.994Z,14.90
2023-03-22T10:54:05.570Z,15.00
2023-03-22T10:56:32.364Z,15.20
2023-03-22T10:58:59.240Z,15.60
2023-03-22T11:01:29.262Z,15.70
2023-03-22T11:04:15.971Z,15.40
2023-03-22T11:06:50.873Z,15.70
2023-03-22T11:09:22.324Z,16.10
2023-03-22T11:12:01.634Z,15.80
2023-03-22T11:14:32.711Z,15.90
2023-03-22T11:17:06.646Z,15.80
2023-03-22T11:19:34.635Z,15.60
2023-03-22T11:22:02.952Z,15.30
2023-03-22T11:24:31.890Z,15.30
2023-03-22T11:27:25.582Z,15.20
2023-03-22T11:29:54.613Z,15.30
2023-03-22T11:32:28.930Z,15.10
2023-03-22T11:35:27.742Z,15.40
2023-03-22T11:37:55.850Z,15.40
2023-03-22T11:40:24.637Z,15.50
2023-03-22T11:42:56.528Z,15.40
2023-03-22T11:45:28.476Z,15.50
2023-03-22T11:48:02.250Z,15.40
2023-03-22T11:50:32.054Z,15.30
2023-03-22T11:53:02.292Z,15.30
2023-03-22T11:55:33.648Z,15.40
2023-03-22T11:58:03.840Z,15.30
2023-03-22T12:00:33.416Z,15.30
2023-03-22T12:03:16.661Z,15.40
2023-03-22T12:05:45.025Z,15.50
2023-03-22T12:08:15.451Z,15.80
2023-03-22T12:10:44.490Z,15.80
2023-03-22T12:13:29.004Z,16.00
2023-03-22T12:15:58.554Z,16.40
2023-03-22T12:18:39.638Z,16.80
2023-03-22T12:21:07.167Z,16.90
2023-03-22T12:23:37.644Z,17.20
2023-03-22T12:26:10.417Z,17.70
2023-03-22T12:28:55.542Z,18.10
2023-03-22T12:31:38.426Z,17.70
2023-03-22T12:34:08.047Z,17.10
2023-03-22T12:36:41.492Z,17.20
2023-03-22T12:39:09.593Z,17.60
2023-03-22T12:41:39.111Z,18.00
2023-03-22T12:44:19.078Z,18.00
2023-03-22T12:46:56.803Z,18.00
2023-03-22T12:49:27.508Z,18.00
2023-03-22T12:51:56.574Z,17.70
2023-03-22T12:54:24.430Z,17.80
2023-03-22T12:56:51.282Z,17.60
2023-03-22T12:59:24.270Z,17.40
2023-03-22T13:02:10.625Z,18.00
2023-03-22T13:04:37.345Z,17.90
2023-03-22T13:07:19.510Z,18.00
2023-03-22T13:09:47.989Z,18.40
2023-03-22T13:12:17.631Z,18.90
2023-03-22T13:14:53.957Z,18.40
2023-03-22T13:17:23.635Z,18.20
2023-03-22T13:20:23.463Z,18.10
2023-03-22T13:22:50.387Z,18.10
2023-03-22T13:25:29.553Z,17.70
2023-03-22T13:28:03.378Z,18.00
2023-03-22T13:30:33.423Z,18.20
2023-03-22T13:33:08.843Z,18.70
2023-03-22T13:35:51.243Z,18.50
2023-03-22T13:38:38.967Z,18.00
2023-03-22T13:41:22.654Z,18.20
2023-03-22T13:43:51.361Z,18.10
2023-03-22T13:46:18.124Z,17.60
2023-03-22T13:48:48.051Z,18.10
2023-03-22T13:51:18.300Z,17.70
2023-03-22T13:54:19.007Z,18.00
2023-03-22T13:56:54.158Z,18.60
2023-03-22T13:59:27.343Z,17.90
2023-03-22T14:02:07.594Z,17.70
2023-03-22T14:05:04.331Z,17.40
2023-03-22T14:07:44.384Z,17.30
2023-03-22T14:10:17.644Z,17.20
2023-03-22T14:13:06.217Z,17.30
2023-03-22T14:15:34.726Z,17.40
2023-03-22T14:18:21.445Z,17.40
2023-03-22T14:20:51.906Z,17.50
